Time;durP1;ratioP1;P1;durP2;ratioP2;P2;SDS_P1;SDS_P2;PMS_P1;PMS_P2;Temp;Humidity;BMP_temperature;BMP_pressure;BME280_temperature;BME280_humidity;BME280_pressure;Samples;Min_cycle;Max_cycle;Signal;HPM_P1;HPM_P2
2024/02/02 00:01:39;;;;;;;4.73;3.50;;;;;;;4.46;100.00;99748.94;5059293;28;20316;-79
2024/02/02 00:04:05;;;;;;;7.53;4.00;;;;;;;4.49;100.00;99752.38;5059256;28;20210;-79
2024/02/02 00:06:32;;;;;;;5.20;2.67;;;;;;;4.45;100.00;99748.06;5060072;28;20373;-80
2024/02/02 00:09:00;;;;;;;10.70;3.90;;;;;;;4.44;100.00;99746.34;5059674;28;20293;-79
2024/02/02 00:11:26;;;;;;;6.73;3.63;;;;;;;4.43;100.00;99735.91;5059839;28;20294;-79
2024/02/02 00:13:53;;;;;;;5.20;3.23;;;;;;;4.38;100.00;99730.75;5059806;28;20266;-79
2024/02/02 00:16:20;;;;;;;4.37;3.20;;;;;;;4.35;100.00;99736.03;5059341;28;20207;-82
2024/02/02 00:18:46;;;;;;;5.83;2.80;;;;;;;4.31;100.00;99739.63;5059614;28;20228;-79
2024/02/02 00:21:13;;;;;;;5.73;2.87;;;;;;;4.26;100.00;99741.47;5059276;28;20215;-79
2024/02/02 00:23:39;;;;;;;6.87;3.77;;;;;;;4.20;100.00;99741.56;5060018;28;20297;-79
2024/02/02 00:26:07;;;;;;;6.33;3.20;;;;;;;4.18;100.00;99737.25;5059390;28;20221;-79
2024/02/02 00:28:34;;;;;;;4.50;3.47;;;;;;;4.15;100.00;99740.78;5059301;28;20304;-79
2024/02/02 00:31:01;;;;;;;6.77;3.20;;;;;;;4.08;100.00;99736.56;5059516;28;20261;-80
2024/02/02 00:33:28;;;;;;;7.47;3.40;;;;;;;4.05;100.00;99730.53;5059434;28;20213;-79
2024/02/02 00:35:54;;;;;;;5.43;3.17;;;;;;;3.95;100.00;99719.38;5060207;28;20217;-79
2024/02/02 00:38:21;;;;;;;7.10;3.40;;;;;;;3.90;100.00;99728.16;5058531;28;20249;-79
2024/02/02 00:40:47;;;;;;;7.10;3.30;;;;;;;3.74;100.00;99724.94;5058786;28;20256;-81
2024/02/02 00:43:15;;;;;;;6.23;3.67;;;;;;;3.62;100.00;99725.16;5059593;28;20235;-79
2024/02/02 00:45:42;;;;;;;7.33;3.57;;;;;;;3.55;100.00;99728.75;5058616;28;20292;-79
2024/02/02 00:48:08;;;;;;;9.60;3.53;;;;;;;3.56;100.00;99725.25;5059206;28;20252;-79
2024/02/02 00:50:35;;;;;;;9.03;4.40;;;;;;;3.62;100.00;99725.16;5060199;28;20716;-79
2024/02/02 00:53:02;;;;;;;8.13;3.97;;;;;;;3.63;100.00;99720.81;5060763;28;20629;-79
2024/02/02 00:55:28;;;;;;;7.80;3.87;;;;;;;3.66;100.00;99720.78;5062384;28;20213;-79
2024/02/02 00:57:55;;;;;;;5.27;3.50;;;;;;;3.66;100.00;99719.00;5060013;28;20236;-79
2024/02/02 01:00:23;;;;;;;5.60;3.30;;;;;;;3.66;100.00;99711.16;5059497;28;20288;-79
2024/02/02 01:02:49;;;;;;;6.40;3.50;;;;;;;3.60;100.00;99706.03;5059907;28;20734;-79
2024/02/02 01:05:16;;;;;;;6.53;3.33;;;;;;;3.59;100.00;99709.53;5059886;28;20219;-81
2024/02/02 01:07:42;;;;;;;6.33;3.37;;;;;;;3.59;100.00;99704.31;5059347;28;20319;-79
2024/02/02 01:10:16;;;;;;;5.27;3.17;;;;;;;3.51;100.00;99702.72;5060749;28;20684;-79
2024/02/02 01:12:43;;;;;;;4.73;3.47;;;;;;;3.44;100.00;99704.56;5059957;28;20280;-79
2024/02/02 01:15:10;;;;;;;6.20;4.23;;;;;;;3.32;100.00;99715.22;5060696;28;20211;-79
2024/02/02 01:17:38;;;;;;;7.20;3.83;;;;;;;3.21;100.00;99711.91;5060417;28;20719;-80
2024/02/02 01:20:06;;;;;;;6.03;3.80;;;;;;;3.19;100.00;99713.66;5061201;28;20249;-80
2024/02/02 01:22:33;;;;;;;7.37;3.90;;;;;;;3.13;100.00;99710.28;5061044;28;20720;-79
2024/02/02 01:25:00;;;;;;;5.63;3.60;;;;;;;3.09;100.00;99706.84;5060812;28;20239;-79
2024/02/02 01:27:26;;;;;;;5.63;3.43;;;;;;;3.10;100.00;99702.47;5060477;28;20229;-79
2024/02/02 01:29:53;;;;;;;5.23;3.20;;;;;;;3.12;100.00;99701.56;5061748;28;20255;-80
2024/02/02 01:32:19;;;;;;;6.37;3.40;;;;;;;3.12;100.00;99701.56;5061204;28;20275;-80
2024/02/02 01:34:47;;;;;;;5.80;3.30;;;;;;;3.10;100.00;99703.34;5061990;28;20234;-80
2024/02/02 01:37:14;;;;;;;6.17;3.67;;;;;;;3.08;100.00;99704.25;5061419;28;20631;-79
2024/02/02 01:39:40;;;;;;;6.50;3.33;;;;;;;3.11;100.00;99707.69;5061611;28;20209;-79
2024/02/02 01:42:07;;;;;;;6.30;3.43;;;;;;;3.06;100.00;99701.66;5061374;28;20288;-80
2024/02/02 01:44:33;;;;;;;5.47;3.57;;;;;;;3.02;100.00;99699.13;5061539;28;20250;-79
2024/02/02 01:47:00;;;;;;;8.80;3.97;;;;;;;3.08;100.00;99693.81;5061451;28;20268;-80
2024/02/02 01:49:26;;;;;;;8.17;3.50;;;;;;;3.08;100.00;99702.53;5062178;28;20237;-81
2024/02/02 01:51:55;;;;;;;6.97;3.27;;;;;;;3.14;100.00;99705.03;5061476;28;20301;-82
2024/02/02 01:54:21;;;;;;;6.20;3.40;;;;;;;3.26;100.00;99702.25;5061913;28;20326;-79
2024/02/02 01:56:48;;;;;;;4.13;3.10;;;;;;;3.30;100.00;99711.75;5062400;28;20237;-80
2024/02/02 01:59:15;;;;;;;7.97;3.37;;;;;;;3.36;100.00;99706.41;5065462;28;20355;-79
2024/02/02 02:01:42;;;;;;;6.90;3.40;;;;;;;3.46;100.00;99708.00;5064837;28;20266;-81
2024/02/02 02:04:08;;;;;;;5.70;3.40;;;;;;;3.40;100.00;99697.66;5062926;28;20207;-79
2024/02/02 02:06:35;;;;;;;5.63;3.50;;;;;;;3.34;100.00;99692.53;5062552;28;20749;-79
2024/02/02 02:09:04;;;;;;;5.40;3.00;;;;;;;3.33;100.00;99695.16;5062561;28;20324;-79
2024/02/02 02:11:31;;;;;;;7.77;3.23;;;;;;;3.36;100.00;99690.75;5062606;28;20255;-79
2024/02/02 02:13:58;;;;;;;6.47;2.73;;;;;;;3.35;100.00;99689.03;5062963;28;20212;-79
2024/02/02 02:16:24;;;;;;;4.27;2.87;;;;;;;3.28;100.00;99684.78;5062505;28;20217;-80
2024/02/02 02:18:51;;;;;;;4.83;2.77;;;;;;;3.19;100.00;99681.47;5062108;28;20251;-79
2024/02/02 02:21:23;;;;;;;5.83;2.97;;;;;;;3.28;100.00;99683.91;5062178;28;20320;-80
2024/02/02 02:23:50;;;;;;;5.77;2.57;;;;;;;3.29;100.00;99688.25;5061894;28;20213;-80
2024/02/02 02:26:17;;;;;;;3.43;2.50;;;;;;;3.34;100.00;99682.06;5062018;28;20209;-80
2024/02/02 02:28:43;;;;;;;6.73;2.93;;;;;;;3.40;100.00;99681.97;5061965;28;20229;-80
2024/02/02 02:31:11;;;;;;;5.83;2.80;;;;;;;3.41;100.00;99678.47;5062914;28;20229;-79
2024/02/02 02:33:37;;;;;;;5.03;2.63;;;;;;;3.48;100.00;99674.88;5062688;28;20251;-80
2024/02/02 02:36:04;;;;;;;5.10;3.00;;;;;;;3.47;100.00;99667.91;5062934;28;20300;-80
2024/02/02 02:38:32;;;;;;;4.47;2.80;;;;;;;3.50;100.00;99667.88;5061821;28;20287;-80
2024/02/02 02:40:59;;;;;;;6.43;3.00;;;;;;;3.54;100.00;99669.53;5062020;28;20279;-80
2024/02/02 02:43:27;;;;;;;6.97;3.00;;;;;;;3.62;100.00;99672.88;5062007;28;20218;-80
2024/02/02 02:45:54;;;;;;;4.23;2.63;;;;;;;3.65;100.00;99666.72;5065134;28;20212;-80
2024/02/02 02:48:20;;;;;;;5.10;2.87;;;;;;;3.79;100.00;99665.59;5064741;28;20267;-80
2024/02/02 02:50:47;;;;;;;6.03;2.80;;;;;;;3.77;100.00;99667.38;5063518;28;20249;-80
2024/02/02 02:53:14;;;;;;;6.27;3.00;;;;;;;3.76;100.00;99670.91;5062333;28;20312;-79
2024/02/02 02:55:42;;;;;;;5.23;2.97;;;;;;;3.80;100.00;99669.09;5062325;28;20206;-80
2024/02/02 02:58:09;;;;;;;3.53;2.63;;;;;;;3.74;100.00;99670.03;5063020;28;20297;-80
2024/02/02 03:00:36;;;;;;;7.50;2.97;;;;;;;3.72;100.00;99664.00;5062842;28;20639;-79
2024/02/02 03:03:02;;;;;;;5.03;2.33;;;;;;;3.70;100.00;99665.78;5062795;28;20237;-80
2024/02/02 03:05:30;;;;;;;5.00;2.50;;;;;;;3.82;100.00;99670.78;5063096;28;20297;-79
2024/02/02 03:07:57;;;;;;;3.27;2.47;;;;;;;3.89;100.00;99672.41;5063374;28;20257;-80
2024/02/02 03:10:25;;;;;;;4.77;2.30;;;;;;;3.82;100.00;99672.53;5062488;28;20246;-80
2024/02/02 03:12:53;;;;;;;5.60;2.40;;;;;;;3.82;100.00;99676.03;5064179;28;20562;-80
2024/02/02 03:15:21;;;;;;;3.60;2.53;;;;;;;3.80;100.00;99669.94;5063863;28;20205;-80
2024/02/02 03:17:48;;;;;;;6.20;2.67;;;;;;;3.78;100.00;99663.03;5062922;28;20308;-80
2024/02/02 03:20:15;;;;;;;6.03;2.67;;;;;;;3.77;100.00;99654.31;5063686;28;20671;-80
2024/02/02 03:22:42;;;;;;;6.63;2.50;;;;;;;3.89;100.00;99655.81;5064126;28;20230;-80
2024/02/02 03:25:09;;;;;;;5.40;2.40;;;;;;;3.82;100.00;99649.00;5063616;28;20218;-80
2024/02/02 03:27:36;;;;;;;5.37;2.47;;;;;;;3.85;100.00;99643.72;5062903;28;20633;-80
2024/02/02 03:30:07;;;;;;;5.67;2.50;;;;;;;3.83;100.00;99648.97;5063218;28;20221;-80
2024/02/02 03:32:34;;;;;;;3.10;2.33;;;;;;;3.82;100.00;99655.09;5064308;28;20226;-80
2024/02/02 03:35:00;;;;;;;5.53;2.67;;;;;;;3.76;100.00;99655.22;5063855;28;20274;-79
2024/02/02 03:37:27;;;;;;;3.50;2.53;;;;;;;3.70;100.00;99657.94;5063082;28;20305;-79
2024/02/02 03:39:53;;;;;;;4.23;2.40;;;;;;;3.75;100.00;99663.94;5063768;28;20295;-80
2024/02/02 03:42:20;;;;;;;4.77;2.57;;;;;;;3.76;100.00;99655.22;5063446;28;20265;-80
2024/02/02 03:44:46;;;;;;;7.20;3.00;;;;;;;3.76;100.00;99660.44;5063440;28;20237;-80
2024/02/02 03:47:14;;;;;;;4.77;2.40;;;;;;;3.71;100.00;99661.38;5063008;28;20282;-80
2024/02/02 03:49:41;;;;;;;3.43;2.40;;;;;;;3.74;100.00;99659.59;5063611;28;20240;-80
2024/02/02 03:52:07;;;;;;;7.20;2.53;;;;;;;3.74;100.00;99656.97;5063759;28;20268;-80
2024/02/02 03:54:35;;;;;;;4.70;2.90;;;;;;;3.73;100.00;99655.25;5064237;28;20704;-80
2024/02/02 03:57:02;;;;;;;5.23;2.63;;;;;;;3.77;100.00;99642.97;5059656;28;20213;-78
2024/02/02 03:59:29;;;;;;;4.60;2.30;;;;;;;3.82;100.00;99649.00;5063950;28;20677;-80
2024/02/02 04:01:55;;;;;;;2.80;2.33;;;;;;;3.80;100.00;99646.41;5063503;28;20256;-80
2024/02/02 04:04:23;;;;;;;4.63;2.47;;;;;;;3.82;100.00;99649.88;5063548;28;20300;-80
2024/02/02 04:06:50;;;;;;;5.20;2.87;;;;;;;3.87;100.00;99653.28;5063248;28;20210;-80
2024/02/02 04:09:17;;;;;;;4.40;2.70;;;;;;;3.93;100.00;99657.50;5063326;28;20260;-80
2024/02/02 04:11:43;;;;;;;9.70;2.67;;;;;;;3.96;100.00;99662.66;5063228;28;20292;-80
2024/02/02 04:14:10;;;;;;;6.47;2.80;;;;;;;3.91;100.00;99664.53;5063392;28;20209;-80
2024/02/02 04:16:36;;;;;;;4.30;2.40;;;;;;;3.89;100.00;99679.38;5063133;28;20296;-80
2024/02/02 04:19:03;;;;;;;4.37;2.67;;;;;;;3.95;100.00;99676.63;5063371;28;20244;-79
2024/02/02 04:21:31;;;;;;;7.20;3.27;;;;;;;4.00;100.00;99685.28;5063007;28;20257;-80
2024/02/02 04:23:57;;;;;;;3.80;2.63;;;;;;;4.00;100.00;99670.44;5062896;28;20278;-80
2024/02/02 04:26:24;;;;;;;3.93;2.70;;;;;;;4.13;100.00;99664.09;5063649;28;20217;-80
2024/02/02 04:28:50;;;;;;;7.27;3.20;;;;;;;4.25;100.00;99674.31;5062634;28;20228;-79
2024/02/02 04:31:17;;;;;;;5.57;3.03;;;;;;;4.26;100.00;99673.41;5062504;28;20329;-80
2024/02/02 04:33:43;;;;;;;6.60;3.53;;;;;;;4.27;100.00;99676.91;5062624;28;20593;-80
2024/02/02 04:36:10;;;;;;;6.13;3.30;;;;;;;4.32;100.00;99673.31;5062723;28;20245;-80
2024/02/02 04:38:38;;;;;;;6.37;3.50;;;;;;;4.31;100.00;99679.44;5062086;28;20233;-80
2024/02/02 04:41:05;;;;;;;4.87;3.03;;;;;;;4.32;100.00;99677.66;5061783;28;20221;-80
2024/02/02 04:43:31;;;;;;;4.73;3.23;;;;;;;4.29;100.00;99675.13;5062360;28;20621;-80
2024/02/02 04:45:58;;;;;;;6.80;3.67;;;;;;;4.26;100.00;99668.19;5062009;28;20241;-80
2024/02/02 04:48:26;;;;;;;6.67;3.23;;;;;;;4.25;100.00;99665.59;5062093;28;20292;-80
2024/02/02 04:50:52;;;;;;;5.33;3.73;;;;;;;4.17;100.00;99663.13;5062478;28;20218;-80
2024/02/02 04:53:19;;;;;;;8.60;3.33;;;;;;;4.14;100.00;99676.28;5062146;28;20320;-79
2024/02/02 04:55:47;;;;;;;5.53;3.30;;;;;;;4.16;100.00;99669.25;5061984;28;20211;-80
2024/02/02 04:58:13;;;;;;;6.27;3.33;;;;;;;4.22;100.00;99670.91;5061878;28;20214;-80
2024/02/02 05:00:40;;;;;;;6.63;3.23;;;;;;;4.28;100.00;99678.63;5062801;28;20273;-80
2024/02/02 05:03:06;;;;;;;7.77;3.43;;;;;;;4.34;100.00;99676.75;5063039;28;20235;-80
2024/02/02 05:05:34;;;;;;;8.73;3.67;;;;;;;4.39;100.00;99681.91;5062449;28;20253;-80
2024/02/02 05:08:00;;;;;;;6.47;3.17;;;;;;;4.39;100.00;99677.50;5061290;28;20227;-80
2024/02/02 05:10:27;;;;;;;5.37;3.13;;;;;;;4.44;100.00;99677.41;5062464;28;20249;-80
2024/02/02 05:12:55;;;;;;;5.73;3.40;;;;;;;4.47;100.00;99683.44;5059039;28;20321;-80
2024/02/02 05:15:21;;;;;;;5.67;3.30;;;;;;;4.49;100.00;99684.28;5057076;28;20648;-80
2024/02/02 05:17:48;;;;;;;5.00;2.70;;;;;;;4.50;100.00;99678.16;5056117;28;20211;-81
2024/02/02 05:20:15;;;;;;;5.13;3.13;;;;;;;4.63;100.00;99687.47;5057140;28;20533;-80
2024/02/02 05:22:41;;;;;;;5.27;3.00;;;;;;;4.61;100.00;99689.28;5059040;28;20252;-80
2024/02/02 05:25:08;;;;;;;7.60;3.07;;;;;;;4.70;100.00;99696.09;5066748;28;20297;-79
2024/02/02 05:27:34;;;;;;;5.20;2.80;;;;;;;4.69;100.00;99695.22;5069164;28;20241;-80
2024/02/02 05:30:02;;;;;;;6.63;2.93;;;;;;;4.74;100.00;99703.84;5068054;28;20292;-79
2024/02/02 05:32:29;;;;;;;4.87;3.27;;;;;;;4.78;100.00;99705.50;5064379;28;20271;-80
2024/02/02 05:34:56;;;;;;;5.27;3.07;;;;;;;4.72;100.00;99716.13;5061501;28;20270;-79
2024/02/02 05:37:22;;;;;;;6.27;3.33;;;;;;;4.76;100.00;99717.75;5061692;28;20206;-79
2024/02/02 05:39:49;;;;;;;7.03;3.10;;;;;;;4.76;100.00;99736.09;5061708;28;20297;-79
2024/02/02 05:42:15;;;;;;;5.77;2.73;;;;;;;4.77;100.00;99729.94;5061344;28;20321;-80
2024/02/02 05:44:44;;;;;;;4.23;2.90;;;;;;;4.77;100.00;99729.94;5061939;28;20786;-80
2024/02/02 05:47:12;;;;;;;4.73;3.30;;;;;;;4.78;100.00;99730.81;5061423;28;20226;-79
2024/02/02 05:49:39;;;;;;;6.33;3.40;;;;;;;4.81;100.00;99736.84;5063708;28;20231;-80
2024/02/02 05:52:06;;;;;;;4.33;2.93;;;;;;;4.84;100.00;99731.53;5063080;28;20265;-80
2024/02/02 05:54:35;;;;;;;7.17;3.20;;;;;;;4.80;100.00;99735.16;5063620;28;20269;-80
2024/02/02 05:57:01;;;;;;;5.97;3.10;;;;;;;4.83;100.00;99731.59;5063233;28;20210;-79
2024/02/02 05:59:28;;;;;;;6.53;3.37;;;;;;;4.91;100.00;99733.16;5062361;28;20653;-79
2024/02/02 06:01:54;;;;;;;6.63;3.33;;;;;;;4.85;100.00;99733.28;5061873;28;20709;-79
2024/02/02 06:04:22;;;;;;;8.17;2.90;;;;;;;4.83;100.00;99726.34;5062264;28;20274;-80
2024/02/02 06:06:49;;;;;;;7.13;3.07;;;;;;;4.77;100.00;99716.84;5061667;28;20702;-80
2024/02/02 06:09:15;;;;;;;5.93;3.20;;;;;;;4.78;100.00;99721.22;5061942;28;20322;-79
2024/02/02 06:11:42;;;;;;;6.03;3.57;;;;;;;4.93;100.00;99714.78;5061536;28;20265;-79
2024/02/02 06:14:08;;;;;;;5.90;3.10;;;;;;;4.94;100.00;99708.66;5062410;28;20234;-80
2024/02/02 06:16:35;;;;;;;3.70;3.07;;;;;;;4.87;100.00;99720.13;5062826;28;20239;-79
2024/02/02 06:19:02;;;;;;;6.37;3.53;;;;;;;4.86;100.00;99723.66;5061955;28;20394;-80
2024/02/02 06:21:30;;;;;;;6.67;3.20;;;;;;;4.93;100.00;99720.88;5062434;28;20266;-79
2024/02/02 06:23:56;;;;;;;7.13;3.20;;;;;;;4.92;100.00;99724.41;5061981;28;20204;-79
2024/02/02 06:26:23;;;;;;;7.87;3.73;;;;;;;5.00;100.00;99722.47;5061997;28;20235;-79
2024/02/02 06:28:50;;;;;;;6.13;3.33;;;;;;;4.92;100.00;99727.03;5062150;28;20287;-79
2024/02/02 06:31:16;;;;;;;4.50;3.13;;;;;;;4.84;100.00;99730.69;5062141;28;20295;-78
2024/02/02 06:33:43;;;;;;;3.97;2.93;;;;;;;4.83;100.00;99737.69;5061935;28;20223;-81
2024/02/02 06:36:09;;;;;;;6.20;3.50;;;;;;;4.77;100.00;99740.44;5060567;28;20217;-80
2024/02/02 06:38:37;;;;;;;5.37;2.97;;;;;;;4.81;100.00;99757.81;5061323;28;20231;-78
2024/02/02 06:41:06;;;;;;;7.10;3.90;;;;;;;4.87;100.00;99757.69;5062152;28;20249;-81
2024/02/02 06:43:32;;;;;;;5.50;3.57;;;;;;;4.87;100.00;99768.16;5062731;28;20250;-79
2024/02/02 06:45:59;;;;;;;4.87;3.10;;;;;;;4.72;100.00;99762.38;5066334;28;20689;-79
2024/02/02 06:48:26;;;;;;;4.80;3.30;;;;;;;4.63;100.00;99758.19;5063688;28;20239;-79
2024/02/02 06:50:53;;;;;;;4.73;3.10;;;;;;;4.60;100.00;99776.59;5062684;28;20235;-82
2024/02/02 06:53:19;;;;;;;5.27;2.93;;;;;;;4.63;100.00;99768.66;5062979;28;20301;-82
2024/02/02 06:55:48;;;;;;;6.70;3.80;;;;;;;4.66;100.00;99763.38;5062421;28;20275;-82
2024/02/02 06:58:32;;;;;;;6.50;3.70;;;;;;;4.68;100.00;99782.53;5061677;28;20301;-79
2024/02/02 07:00:59;;;;;;;7.30;3.80;;;;;;;4.63;100.00;99766.03;5061701;28;20218;-79
2024/02/02 07:03:25;;;;;;;7.00;3.47;;;;;;;4.61;100.00;99780.94;5062711;28;20242;-81
2024/02/02 07:05:52;;;;;;;7.30;3.60;;;;;;;4.57;100.00;99767.91;5062326;28;20229;-81
2024/02/02 07:08:20;;;;;;;6.27;3.63;;;;;;;4.54;100.00;99771.47;5061431;28;20206;-79
2024/02/02 07:10:59;;;;;;;6.80;3.73;;;;;;;4.50;100.00;99771.53;5063257;28;20427;-79
2024/02/02 07:13:26;;;;;;;8.93;4.13;;;;;;;4.48;100.00;99774.22;5062348;28;20717;-81
2024/02/02 07:15:53;;;;;;;6.73;4.37;;;;;;;4.55;100.00;99770.56;5063437;28;20225;-79
2024/02/02 07:18:33;;;;;;;8.80;4.03;;;;;;;4.55;100.00;99770.56;5062813;28;20633;-79
2024/02/02 07:21:04;;;;;;;6.33;4.10;;;;;;;4.55;100.00;99777.56;5062951;28;20228;-79
2024/02/02 07:23:36;;;;;;;7.67;4.87;;;;;;;4.56;100.00;99782.78;5062845;28;20578;-79
2024/02/02 07:26:08;;;;;;;6.40;4.03;;;;;;;4.59;100.00;99782.69;5062855;28;20348;-79
2024/02/02 07:28:37;;;;;;;9.20;4.63;;;;;;;4.58;100.00;99780.97;5053572;28;20301;-77
2024/02/02 07:31:04;;;;;;;8.90;4.80;;;;;;;4.65;100.00;99779.13;5053382;28;20228;-77
2024/02/02 07:33:38;;;;;;;8.30;5.20;;;;;;;4.66;100.00;99780.84;5053578;28;20249;-77
2024/02/02 07:36:06;;;;;;;10.53;5.10;;;;;;;4.71;100.00;99782.47;5053493;28;20305;-76
2024/02/02 07:38:53;;;;;;;9.27;5.20;;;;;;;4.72;100.00;99762.38;5058229;28;20218;-79
2024/02/02 07:41:25;;;;;;;6.37;4.60;;;;;;;4.75;100.00;99763.19;5062095;28;20792;-79
2024/02/02 07:43:53;;;;;;;8.80;5.50;;;;;;;4.77;100.00;99761.38;5061135;28;20199;-79
2024/02/02 07:46:20;;;;;;;8.23;5.50;;;;;;;4.81;100.00;99760.44;5060620;28;20218;-79
2024/02/02 07:48:48;;;;;;;8.33;5.37;;;;;;;4.82;100.00;99763.94;5060657;28;20290;-79
2024/02/02 07:51:15;;;;;;;8.23;5.40;;;;;;;4.85;100.00;99759.50;5061131;28;20744;-79
2024/02/02 07:53:43;;;;;;;6.73;5.20;;;;;;;4.91;100.00;99754.13;5061336;28;20219;-79
2024/02/02 07:56:09;;;;;;;7.50;5.23;;;;;;;4.94;100.00;99754.03;5060946;28;20215;-80
2024/02/02 07:58:39;;;;;;;10.67;5.77;;;;;;;5.01;100.00;99758.25;5059259;28;20241;-79
2024/02/02 08:01:06;;;;;;;8.63;5.83;;;;;;;5.06;100.00;99761.63;5062715;28;20213;-79
2024/02/02 08:03:33;;;;;;;10.10;5.77;;;;;;;5.13;100.00;99750.13;5064221;28;20231;-79
2024/02/02 08:06:00;;;;;;;10.30;6.60;;;;;;;5.20;100.00;99756.09;5064140;28;20208;-80
2024/02/02 08:08:26;;;;;;;10.70;7.13;;;;;;;5.24;100.00;99763.88;5062854;28;20566;-79
2024/02/02 08:10:53;;;;;;;11.07;7.40;;;;;;;5.36;100.00;99763.59;5062127;28;20318;-79
2024/02/02 08:13:20;;;;;;;10.63;8.38;;;;;;;5.40;100.00;99762.63;5063475;28;20436;-79
2024/02/02 08:15:48;;;;;;;9.80;6.47;;;;;;;5.41;100.00;99766.97;5062527;28;20239;-80
2024/02/02 08:18:15;;;;;;;7.30;6.07;;;;;;;5.45;100.00;99773.84;5061090;28;20295;-79
2024/02/02 08:20:42;;;;;;;8.33;6.20;;;;;;;5.45;100.00;99768.59;5060076;28;20236;-80
2024/02/02 08:23:09;;;;;;;8.90;5.93;;;;;;;5.47;100.00;99756.34;5056925;28;20228;-83
2024/02/02 08:25:35;;;;;;;9.20;5.63;;;;;;;5.60;100.00;99731.56;5056204;28;20235;-83
2024/02/02 08:28:02;;;;;;;8.87;5.73;;;;;;;5.72;100.00;99731.25;5060652;28;20272;-78
2024/02/02 08:30:29;;;;;;;11.63;5.57;;;;;;;5.74;100.00;99739.94;5061087;28;20232;-80
2024/02/02 08:32:57;;;;;;;11.13;6.50;;;;;;;5.76;100.00;99742.53;5058911;28;20262;-79
2024/02/02 08:35:25;;;;;;;10.30;6.17;;;;;;;5.85;100.00;99747.56;5059033;28;20664;-78
2024/02/02 08:37:55;;;;;;;9.77;6.23;;;;;;;5.95;100.00;99739.47;5060376;28;20284;-79
2024/02/02 08:40:36;;;;;;;8.43;6.30;;;;;;;6.01;100.00;99748.91;5059962;28;20291;-80
2024/02/02 08:43:03;;;;;;;9.93;6.13;;;;;;;5.97;100.00;99755.13;5059424;28;20235;-78
2024/02/02 08:46:06;;;;;;;9.53;5.90;;;;;;;5.90;100.00;99745.69;5059336;28;20294;-79
2024/02/02 08:48:37;;;;;;;12.40;6.73;;;;;;;6.01;100.00;99747.16;5062025;28;20215;-79
2024/02/02 08:51:35;;;;;;;12.37;6.70;;;;;;;6.03;100.00;99742.72;5061517;28;20271;-79
2024/02/02 08:54:38;;;;;;;9.57;6.20;;;;;;;6.06;100.00;99737.44;5064391;28;20667;-79
2024/02/02 08:57:36;;;;;;;10.20;6.57;;;;;;;6.12;100.00;99731.97;5061402;28;20208;-79
2024/02/02 09:00:13;;;;;;;10.93;6.80;;;;;;;6.21;100.00;99729.13;5061463;28;20207;-79
2024/02/02 09:02:55;;;;;;;10.80;6.57;;;;;;;6.27;100.00;99726.34;5060251;28;20258;-80
2024/02/02 09:05:24;;;;;;;10.97;6.93;;;;;;;6.26;100.00;99719.38;5060598;28;20215;-80
2024/02/02 09:07:53;;;;;;;12.27;7.93;;;;;;;6.30;100.00;99715.75;5061324;28;20687;-80
2024/02/02 09:10:57;;;;;;;10.50;6.93;;;;;;;6.32;100.00;99732.34;5062321;28;20279;-80
2024/02/02 09:13:25;;;;;;;9.77;6.83;;;;;;;6.29;100.00;99740.28;5061948;28;20212;-80
2024/02/02 09:15:52;;;;;;;10.90;6.67;;;;;;;6.32;100.00;99742.84;5062188;28;20239;-80
2024/02/02 09:18:34;;;;;;;11.93;7.60;;;;;;;6.43;100.00;99750.41;5062482;28;20248;-79
2024/02/02 09:21:03;;;;;;;7.90;6.23;;;;;;;6.53;100.00;99747.50;5062735;28;20607;-79
2024/02/02 09:23:32;;;;;;;8.97;7.37;;;;;;;6.51;100.00;99751.94;5063670;28;20227;-80
2024/02/02 09:25:59;;;;;;;10.23;6.80;;;;;;;6.58;100.00;99758.75;5062755;28;20215;-79
2024/02/02 09:28:39;;;;;;;10.37;6.70;;;;;;;6.68;100.00;99754.97;5061272;28;20203;-80
2024/02/02 09:31:07;;;;;;;11.57;6.37;;;;;;;6.75;100.00;99743.38;5062631;28;20259;-78
2024/02/02 09:33:48;;;;;;;9.87;6.93;;;;;;;6.80;100.00;99738.84;5062182;28;20212;-79
2024/02/02 09:36:17;;;;;;;9.03;6.60;;;;;;;6.88;100.00;99752.63;5063838;28;20208;-80
2024/02/02 09:38:57;;;;;;;10.30;5.90;;;;;;;6.93;100.00;99756.00;5062602;28;20246;-80
2024/02/02 09:41:57;;;;;;;10.80;6.10;;;;;;;6.94;100.00;99752.44;5063453;28;20239;-79
2024/02/02 09:44:46;;;;;;;12.20;6.67;;;;;;;6.92;100.00;99756.91;5064033;28;20212;-79
2024/02/02 09:47:33;;;;;;;12.13;6.30;;;;;;;6.93;100.00;99766.50;5061239;28;20218;-79
2024/02/02 09:50:15;;;;;;;8.60;5.77;;;;;;;6.95;100.00;99753.31;5067151;28;20230;-79
2024/02/02 09:52:55;;;;;;;8.67;5.70;;;;;;;6.98;100.00;99747.97;5066991;28;20255;-79
2024/02/02 09:55:27;;;;;;;11.47;6.50;;;;;;;6.93;100.00;99745.47;5066603;28;20267;-79
2024/02/02 09:58:01;;;;;;;11.27;6.50;;;;;;;6.94;100.00;99752.44;5065125;28;20213;-79
2024/02/02 10:00:37;;;;;;;7.93;5.80;;;;;;;7.04;100.00;99758.31;5064712;28;20234;-79
2024/02/02 10:03:14;;;;;;;9.17;5.83;;;;;;;7.11;100.00;99747.56;5062852;28;20330;-79
2024/02/02 10:05:56;;;;;;;9.77;5.23;;;;;;;7.10;100.00;99752.84;5063237;28;20215;-79
2024/02/02 10:08:43;;;;;;;7.63;5.57;;;;;;;7.12;100.00;99761.56;5060965;28;20215;-80
2024/02/02 10:11:26;;;;;;;9.07;5.20;;;;;;;7.15;100.00;99762.31;5062628;28;20267;-80
2024/02/02 10:14:08;;;;;;;9.33;5.90;;;;;;;7.15;100.00;99756.22;5062268;28;20224;-80
2024/02/02 10:16:45;;;;;;;7.00;4.97;;;;;;;7.09;100.00;99752.00;5062232;28;20240;-80
2024/02/02 10:19:30;;;;;;;7.93;5.47;;;;;;;7.07;100.00;99769.59;5065743;28;20208;-80
2024/02/02 10:22:15;;;;;;;7.53;5.13;;;;;;;7.01;100.00;99767.13;5066438;28;20236;-80
2024/02/02 10:25:09;;;;;;;8.43;5.90;;;;;;;6.93;100.00;99766.50;5067584;28;20232;-80
2024/02/02 10:27:45;;;;;;;9.10;5.60;;;;;;;6.91;100.00;99756.94;5065291;28;20271;-80
2024/02/02 10:30:25;;;;;;;8.97;5.90;;;;;;;6.93;100.00;99747.22;5067227;28;20291;-79
2024/02/02 10:33:09;;;;;;;10.13;6.47;;;;;;;6.99;100.00;99740.03;5068018;28;20236;-80
2024/02/02 10:35:44;;;;;;;7.10;5.80;;;;;;;7.05;100.00;99731.09;5066936;28;20238;-79
2024/02/02 10:38:33;;;;;;;10.30;6.47;;;;;;;7.11;100.00;99718.66;5067832;28;20218;-79
2024/02/02 10:41:09;;;;;;;9.30;6.70;;;;;;;7.25;100.00;99729.59;5066952;28;20205;-79
2024/02/02 10:43:45;;;;;;;7.23;5.80;;;;;;;7.32;100.00;99718.84;5066016;28;20235;-78
2024/02/02 10:46:22;;;;;;;7.73;5.20;;;;;;;7.42;100.00;99717.63;5067576;28;20562;-79
2024/02/02 10:49:12;;;;;;;10.80;6.00;;;;;;;7.47;100.00;99714.88;5066375;28;20212;-79
2024/02/02 10:51:44;;;;;;;9.00;5.60;;;;;;;7.50;100.00;99705.13;5066446;28;20259;-79
2024/02/02 10:54:33;;;;;;;8.40;5.50;;;;;;;7.53;100.00;99685.75;5065797;28;20209;-79
2024/02/02 10:57:21;;;;;;;9.80;5.80;;;;;;;7.53;100.00;99677.84;5065076;28;20232;-79
2024/02/02 11:00:04;;;;;;;9.10;6.10;;;;;;;7.57;100.00;99676.81;5061653;28;20212;-80
2024/02/02 11:02:37;;;;;;;9.00;5.73;;;;;;;7.61;100.00;99678.44;5064681;28;20653;-79
2024/02/02 11:05:14;;;;;;;8.17;5.50;;;;;;;7.70;100.00;99668.47;5066136;28;20256;-80
2024/02/02 11:07:47;;;;;;;7.35;6.05;;;;;;;7.85;100.00;99659.19;5063383;28;20432;-80
2024/02/02 11:10:18;;;;;;;6.70;5.20;;;;;;;7.91;100.00;99656.34;5065661;28;20261;-80
2024/02/02 11:12:53;;;;;;;9.40;5.13;;;;;;;8.02;100.00;99652.44;5063841;28;20229;-81
2024/02/02 11:15:34;;;;;;;4.73;3.63;;;;;;;8.17;100.00;99648.41;5062534;28;20244;-80
2024/02/02 11:18:18;;;;;;;4.50;3.40;;;;;;;8.39;100.00;99649.41;5062097;28;20295;-80
2024/02/02 11:20:56;;;;;;;4.63;3.50;;;;;;;8.46;100.00;99640.34;5063841;28;20272;-81
2024/02/02 11:23:32;;;;;;;3.50;2.40;;;;;;;8.56;100.00;99636.47;5062277;28;20296;-80
2024/02/02 11:26:07;;;;;;;3.30;2.30;;;;;;;8.63;100.00;99632.69;5061280;28;20629;-80
2024/02/02 11:28:46;;;;;;;3.10;2.50;;;;;;;8.87;100.00;99627.31;5062313;28;20282;-81
2024/02/02 11:31:31;;;;;;;2.90;2.33;;;;;;;9.05;100.00;99615.19;5063795;28;20607;-79
2024/02/02 11:34:07;;;;;;;2.90;2.40;;;;;;;9.13;100.00;99602.56;5065510;28;20578;-79
2024/02/02 11:37:02;;;;;;;2.80;2.23;;;;;;;9.26;100.00;99598.50;5065594;28;20207;-79
2024/02/02 11:39:43;;;;;;;4.40;2.27;;;;;;;9.45;100.00;99604.72;5065024;28;20211;-79
2024/02/02 11:42:12;;;;;;;2.80;2.10;;;;;;;9.51;100.00;99583.38;5061111;28;20238;-80
2024/02/02 11:44:43;;;;;;;2.80;1.73;;;;;;;9.63;100.00;99588.13;5063471;28;20215;-79
2024/02/02 11:47:11;;;;;;;2.63;1.53;;;;;;;9.73;95.77;99558.63;5066408;28;20312;-79